createdAt,value
2022-09-23T00:00:28.919Z,1.77
2022-09-23T00:02:56.315Z,1.87
2022-09-23T00:05:23.652Z,1.60
2022-09-23T00:07:51.037Z,1.83
2022-09-23T00:10:18.566Z,1.63
2022-09-23T00:12:45.853Z,1.30
2022-09-23T00:15:13.314Z,1.60
2022-09-23T00:17:41.280Z,1.60
2022-09-23T00:20:12.024Z,1.80
2022-09-23T00:22:39.569Z,1.67
2022-09-23T00:25:09.293Z,2.13
2022-09-23T00:27:37.369Z,1.57
2022-09-23T00:30:06.070Z,1.63
2022-09-23T00:32:33.669Z,1.77
2022-09-23T00:35:01.239Z,1.63
2022-09-23T00:37:29.429Z,1.80
2022-09-23T00:39:57.002Z,1.97
2022-09-23T00:42:25.034Z,2.13
2022-09-23T00:44:53.714Z,1.77
2022-09-23T00:47:30.480Z,1.90
2022-09-23T00:50:10.753Z,1.63
2022-09-23T00:52:38.477Z,1.80
2022-09-23T00:55:12.271Z,1.77
2022-09-23T00:57:40.968Z,1.50
2022-09-23T01:00:08.875Z,1.67
2022-09-23T01:02:37.807Z,1.90
2022-09-23T01:05:06.823Z,2.03
2022-09-23T01:07:34.905Z,1.80
2022-09-23T01:10:03.052Z,1.63
2022-09-23T01:12:36.449Z,1.90
2022-09-23T01:15:15.687Z,2.10
2022-09-23T01:17:51.652Z,1.77
2022-09-23T01:20:37.135Z,1.80
2022-09-23T01:23:14.189Z,1.77
2022-09-23T01:26:01.923Z,1.70
2022-09-23T01:28:53.647Z,2.00
2022-09-23T01:31:43.713Z,1.60
2022-09-23T01:34:11.061Z,1.70
2022-09-23T01:36:43.527Z,1.83
2022-09-23T01:39:17.797Z,1.70
2022-09-23T01:41:59.047Z,1.40
2022-09-23T01:44:26.360Z,1.67
2022-09-23T01:46:53.738Z,1.70
2022-09-23T01:49:23.429Z,1.67
2022-09-23T01:51:54.117Z,1.30
2022-09-23T01:54:41.733Z,1.40
2022-09-23T01:57:12.695Z,1.80
2022-09-23T01:59:46.097Z,1.60
2022-09-23T02:02:16.670Z,1.60
2022-09-23T02:04:51.572Z,1.70
2022-09-23T02:07:21.141Z,1.90
2022-09-23T02:09:53.808Z,1.50
2022-09-23T02:12:22.050Z,1.93
2022-09-23T02:15:02.341Z,1.83
2022-09-23T02:17:36.782Z,1.67
2022-09-23T02:20:05.053Z,1.57
2022-09-23T02:22:36.023Z,1.67
2022-09-23T02:25:03.917Z,1.90
2022-09-23T02:27:36.017Z,1.70
2022-09-23T02:30:09.618Z,1.83
2022-09-23T02:32:41.459Z,1.63
2022-09-23T02:35:09.146Z,1.83
2022-09-23T02:37:38.493Z,1.93
2022-09-23T02:40:11.583Z,1.93
2022-09-23T02:42:43.637Z,1.80
2022-09-23T02:45:11.009Z,1.97
2022-09-23T02:47:40.043Z,1.90
2022-09-23T02:50:07.543Z,2.20
2022-09-23T02:52:36.755Z,1.90
2022-09-23T02:55:04.494Z,1.67
2022-09-23T02:57:32.180Z,1.47
2022-09-23T02:59:59.499Z,1.70
2022-09-23T03:02:54.841Z,2.07
2022-09-23T03:05:25.311Z,2.00
2022-09-23T03:07:56.135Z,2.03
2022-09-23T03:10:26.576Z,2.20
2022-09-23T03:13:03.522Z,1.70
2022-09-23T03:15:46.948Z,1.90
2022-09-23T03:18:20.497Z,1.80
2022-09-23T03:20:51.168Z,1.87
2022-09-23T03:23:25.239Z,2.10
2022-09-23T03:25:54.918Z,1.80
2022-09-23T03:28:23.660Z,1.93
2022-09-23T03:30:51.772Z,1.70
2022-09-23T03:33:20.819Z,1.83
2022-09-23T03:36:27.027Z,1.70
2022-09-23T03:38:58.559Z,1.90
2022-09-23T03:41:30.975Z,2.00
2022-09-23T03:43:59.556Z,1.97
2022-09-23T03:46:28.587Z,2.03
2022-09-23T03:49:00.340Z,1.70
2022-09-23T03:51:27.659Z,2.37
2022-09-23T03:53:54.997Z,2.17
2022-09-23T03:56:22.403Z,1.97
2022-09-23T03:58:49.728Z,1.70
2022-09-23T04:01:17.129Z,1.90
2022-09-23T04:03:44.555Z,2.03
2022-09-23T04:06:11.912Z,1.80
2022-09-23T04:08:39.165Z,2.03
2022-09-23T04:11:06.743Z,2.50
2022-09-23T04:13:35.144Z,2.00
2022-09-23T04:16:02.668Z,1.90
2022-09-23T04:18:30.018Z,1.90
2022-09-23T04:20:58.810Z,1.83
2022-09-23T04:23:29.304Z,2.30
2022-09-23T04:25:56.751Z,1.73
2022-09-23T04:28:24.174Z,1.90
2022-09-23T04:30:51.475Z,2.03
2022-09-23T04:33:18.829Z,1.93
2022-09-23T04:35:50.260Z,1.97
2022-09-23T04:38:17.545Z,1.77
2022-09-23T04:40:44.922Z,1.90
2022-09-23T04:43:13.704Z,2.20
2022-09-23T04:45:44.936Z,1.90
2022-09-23T04:48:13.952Z,1.83
2022-09-23T04:50:41.445Z,1.63
2022-09-23T04:53:08.769Z,2.00
2022-09-23T04:55:36.110Z,2.17
2022-09-23T04:58:03.448Z,1.90
2022-09-23T05:00:30.838Z,1.90
2022-09-23T05:02:58.180Z,2.17
2022-09-23T05:05:26.328Z,2.20
2022-09-23T05:07:55.437Z,1.90
2022-09-23T05:10:23.338Z,2.20
2022-09-23T05:12:53.645Z,2.03
2022-09-23T05:15:24.365Z,1.83
2022-09-23T05:17:51.696Z,2.00
2022-09-23T05:20:19.293Z,2.17
2022-09-23T05:22:46.538Z,1.90
2022-09-23T05:25:13.868Z,2.03
2022-09-23T05:27:41.183Z,1.83
2022-09-23T05:30:09.092Z,1.93
2022-09-23T05:32:36.401Z,4.60
2022-09-23T05:35:04.626Z,3.70
2022-09-23T05:37:33.157Z,2.40
2022-09-23T05:40:00.488Z,2.00
2022-09-23T05:42:28.655Z,2.00
2022-09-23T05:44:56.263Z,4.20
2022-09-23T05:47:23.641Z,2.13
2022-09-23T05:49:59.664Z,2.07
2022-09-23T05:52:27.696Z,2.07
2022-09-23T05:54:55.345Z,2.20
2022-09-23T05:57:22.669Z,2.00
2022-09-23T05:59:50.053Z,2.00
2022-09-23T06:02:17.451Z,1.80
2022-09-23T06:04:45.451Z,1.93
2022-09-23T06:07:12.782Z,2.30
2022-09-23T06:09:40.175Z,2.33
2022-09-23T06:12:07.632Z,2.40
2022-09-23T06:14:34.992Z,1.83
2022-09-23T06:17:02.439Z,3.00
2022-09-23T06:19:29.743Z,2.40
2022-09-23T06:21:57.068Z,2.20
2022-09-23T06:24:30.110Z,2.10
2022-09-23T06:26:58.542Z,2.13
2022-09-23T06:29:25.780Z,2.27
2022-09-23T06:31:53.595Z,2.43
2022-09-23T06:34:21.439Z,2.30
2022-09-23T06:36:48.884Z,2.23
2022-09-23T06:39:16.561Z,3.80
2022-09-23T06:41:47.563Z,2.40
2022-09-23T06:44:15.472Z,2.43
2022-09-23T06:46:42.946Z,2.57
2022-09-23T06:49:11.912Z,2.70
2022-09-23T06:51:39.249Z,2.20
2022-09-23T06:54:06.805Z,2.30
2022-09-23T06:56:38.784Z,1.90
2022-09-23T06:59:08.392Z,2.03
2022-09-23T07:01:35.802Z,2.17
2022-09-23T07:04:03.289Z,2.30
2022-09-23T07:06:30.631Z,2.17
2022-09-23T07:08:57.903Z,2.37
2022-09-23T07:11:25.228Z,2.60
2022-09-23T07:13:52.632Z,1.87
2022-09-23T07:16:21.227Z,2.17
2022-09-23T07:18:48.633Z,2.10
2022-09-23T07:21:17.729Z,1.90
2022-09-23T07:23:50.115Z,1.90
2022-09-23T07:26:18.891Z,2.07
2022-09-23T07:28:46.230Z,1.80
2022-09-23T07:31:15.187Z,2.10
2022-09-23T07:33:46.112Z,1.90
2022-09-23T07:36:15.032Z,1.83
2022-09-23T07:38:45.438Z,1.90
2022-09-23T07:41:14.409Z,1.70
2022-09-23T07:43:41.981Z,1.80
2022-09-23T07:46:11.279Z,1.90
2022-09-23T07:48:39.343Z,2.30
2022-09-23T07:51:18.405Z,2.07
2022-09-23T07:53:49.726Z,1.70
2022-09-23T07:56:19.150Z,1.90
2022-09-23T07:58:46.880Z,1.73
2022-09-23T08:01:14.259Z,1.97
2022-09-23T08:03:41.648Z,1.57
2022-09-23T08:06:10.580Z,1.33
2022-09-23T08:08:43.591Z,1.70
2022-09-23T08:11:12.161Z,1.90
2022-09-23T08:13:39.489Z,1.70
2022-09-23T08:16:07.073Z,2.07
2022-09-23T08:18:34.651Z,1.70
2022-09-23T08:21:02.035Z,1.70
2022-09-23T08:23:33.546Z,2.00
2022-09-23T08:26:04.861Z,2.20
2022-09-23T08:28:33.896Z,2.23
2022-09-23T08:31:01.482Z,2.10
2022-09-23T08:33:28.873Z,1.80
2022-09-23T08:35:59.818Z,1.97
2022-09-23T08:38:27.223Z,2.07
2022-09-23T08:40:57.024Z,1.80
2022-09-23T08:43:24.337Z,2.80
2022-09-23T08:45:52.206Z,3.77
2022-09-23T08:48:23.234Z,2.73
2022-09-23T08:50:53.333Z,2.20
2022-09-23T08:53:25.576Z,2.13
2022-09-23T08:55:54.224Z,2.30
2022-09-23T08:58:39.965Z,2.00
2022-09-23T09:01:16.427Z,2.10
2022-09-23T09:03:46.708Z,2.20
2022-09-23T09:06:18.050Z,2.20
2022-09-23T09:08:48.030Z,2.17
2022-09-23T09:11:15.582Z,2.20
2022-09-23T09:13:49.867Z,1.90
2022-09-23T09:16:58.906Z,1.90
2022-09-23T09:19:46.699Z,2.20
2022-09-23T09:22:17.671Z,2.10
2022-09-23T09:24:46.312Z,2.27
2022-09-23T09:27:14.115Z,2.20
2022-09-23T09:29:49.904Z,1.90
2022-09-23T09:32:23.483Z,2.00
2022-09-23T09:34:54.866Z,1.83
2022-09-23T09:37:35.940Z,1.90
2022-09-23T09:40:03.610Z,2.00
2022-09-23T09:42:41.848Z,1.80
2022-09-23T09:45:11.847Z,1.77
2022-09-23T09:48:03.474Z,2.20
2022-09-23T09:50:45.893Z,1.77
2022-09-23T09:53:35.847Z,2.23
2022-09-23T09:56:05.986Z,1.80
2022-09-23T09:58:42.210Z,1.90
2022-09-23T10:01:09.593Z,1.87
2022-09-23T10:03:40.699Z,1.60
2022-09-23T10:06:21.808Z,1.73
2022-09-23T10:08:51.233Z,1.90
2022-09-23T10:11:19.337Z,1.80
2022-09-23T10:14:02.030Z,1.63
2022-09-23T10:16:33.321Z,1.40
2022-09-23T10:19:01.514Z,1.85
2022-09-23T10:21:36.915Z,1.60
2022-09-23T10:24:08.123Z,1.85
2022-09-23T10:26:41.802Z,1.80
2022-09-23T10:29:27.680Z,1.87
2022-09-23T10:32:13.420Z,1.52
2022-09-23T10:34:44.104Z,1.50
2022-09-23T10:37:29.655Z,1.98
2022-09-23T10:40:15.837Z,2.13
2022-09-23T10:43:16.817Z,2.10
2022-09-23T10:46:07.063Z,2.00
2022-09-23T10:48:37.314Z,1.80
2022-09-23T10:51:08.372Z,1.50
2022-09-23T10:54:01.898Z,1.80
2022-09-23T10:56:29.229Z,2.10
2022-09-23T10:59:14.938Z,2.35
2022-09-23T11:02:08.331Z,1.65
2022-09-23T11:04:47.872Z,1.73
2022-09-23T11:07:24.353Z,1.70
2022-09-23T11:09:54.295Z,1.77
2022-09-23T11:12:35.641Z,1.42
2022-09-23T11:15:02.975Z,1.50
2022-09-23T11:17:38.699Z,1.50
2022-09-23T11:20:18.011Z,1.60
2022-09-23T11:22:53.305Z,1.65
2022-09-23T11:25:26.665Z,1.70
2022-09-23T11:28:08.961Z,1.48
2022-09-23T11:30:45.395Z,1.58
2022-09-23T11:33:25.149Z,1.42
2022-09-23T11:35:59.010Z,1.58
2022-09-23T11:38:29.471Z,1.90
2022-09-23T11:40:58.880Z,1.40
2022-09-23T11:43:29.238Z,1.80
2022-09-23T11:46:03.425Z,1.33
2022-09-23T11:48:37.631Z,1.65
2022-09-23T11:51:15.845Z,1.40
2022-09-23T11:53:46.020Z,1.13
2022-09-23T11:56:36.199Z,1.17
2022-09-23T11:59:04.891Z,1.58
2022-09-23T12:01:37.882Z,1.10
2022-09-23T12:04:20.401Z,1.20
2022-09-23T12:07:08.660Z,0.90
2022-09-23T12:09:57.888Z,1.10
2022-09-23T12:12:28.817Z,0.90
2022-09-23T12:15:20.468Z,1.27
2022-09-23T12:17:53.216Z,0.90
2022-09-23T12:20:23.461Z,0.82
2022-09-23T12:22:53.707Z,0.90
2022-09-23T12:25:39.550Z,1.33
2022-09-23T12:28:24.783Z,1.48
2022-09-23T12:30:54.376Z,0.95
2022-09-23T12:33:24.922Z,0.85
2022-09-23T12:36:06.265Z,1.00
2022-09-23T12:38:36.538Z,1.00
2022-09-23T12:41:19.543Z,0.85
2022-09-23T12:44:13.999Z,0.98
2022-09-23T12:46:42.566Z,1.10
2022-09-23T12:49:25.336Z,1.00
2022-09-23T12:52:11.295Z,0.98
2022-09-23T12:54:39.548Z,1.00
2022-09-23T12:57:26.813Z,1.02
2022-09-23T12:59:54.049Z,0.93
2022-09-23T13:02:27.782Z,1.08
2022-09-23T13:05:18.671Z,0.90
2022-09-23T13:07:48.043Z,0.80
2022-09-23T13:10:35.822Z,0.90
2022-09-23T13:13:03.253Z,0.98
2022-09-23T13:15:34.563Z,1.48
2022-09-23T13:18:22.631Z,1.15
2022-09-23T13:20:51.046Z,1.20
2022-09-23T13:23:22.401Z,0.95
2022-09-23T13:25:51.579Z,1.00
2022-09-23T13:28:39.155Z,0.85
2022-09-23T13:31:07.119Z,0.85
2022-09-23T13:33:56.794Z,1.10
2022-09-23T13:36:24.144Z,0.80
2022-09-23T13:38:51.526Z,1.02
2022-09-23T13:41:20.222Z,1.30
2022-09-23T13:43:51.496Z,0.82
2022-09-23T13:46:21.275Z,1.10
2022-09-23T13:48:49.627Z,1.13
2022-09-23T13:51:21.878Z,0.90
2022-09-23T13:53:59.111Z,0.80
2022-09-23T13:56:27.439Z,0.90
2022-09-23T13:58:56.740Z,0.82
2022-09-23T14:01:31.052Z,0.90
2022-09-23T14:03:58.468Z,1.05
2022-09-23T14:06:27.466Z,1.00
2022-09-23T14:08:55.211Z,1.08
2022-09-23T14:11:23.964Z,1.15
2022-09-23T14:14:01.357Z,0.90
2022-09-23T14:16:28.858Z,1.00
2022-09-23T14:19:00.284Z,1.00
2022-09-23T14:21:38.330Z,0.70
2022-09-23T14:24:14.267Z,1.20
2022-09-23T14:26:43.431Z,0.80
2022-09-23T14:29:18.414Z,1.00
2022-09-23T14:31:57.319Z,0.77
2022-09-23T14:34:43.282Z,0.90
2022-09-23T14:37:49.410Z,0.82
2022-09-23T14:40:18.478Z,0.70
2022-09-23T14:42:47.522Z,1.08
2022-09-23T14:45:17.494Z,0.95
2022-09-23T14:47:47.485Z,0.80
2022-09-23T14:50:40.087Z,0.93
2022-09-23T14:53:27.397Z,0.90
2022-09-23T14:55:59.048Z,0.90
2022-09-23T14:58:28.647Z,0.93
2022-09-23T15:00:57.092Z,1.00
2022-09-23T15:03:24.661Z,1.15
2022-09-23T15:05:59.864Z,1.20
2022-09-23T15:08:28.393Z,1.10
2022-09-23T15:10:56.058Z,1.15
2022-09-23T15:13:26.324Z,1.13
2022-09-23T15:15:54.198Z,1.20
2022-09-23T15:18:26.413Z,1.13
2022-09-23T15:20:58.580Z,1.20
2022-09-23T15:23:36.545Z,1.25
2022-09-23T15:26:07.831Z,1.42
2022-09-23T15:28:35.183Z,1.05
2022-09-23T15:31:03.177Z,1.17
2022-09-23T15:33:30.507Z,1.02
2022-09-23T15:35:58.285Z,1.40
2022-09-23T15:38:27.284Z,1.10
2022-09-23T15:40:54.624Z,1.30
2022-09-23T15:43:23.415Z,1.20
2022-09-23T15:45:53.211Z,0.90
2022-09-23T15:48:22.772Z,0.95
2022-09-23T15:50:54.436Z,0.98
2022-09-23T15:53:26.231Z,1.00
2022-09-23T15:55:54.220Z,1.00
2022-09-23T15:58:22.154Z,1.20
2022-09-23T16:00:55.923Z,1.30
2022-09-23T16:03:28.628Z,1.10
2022-09-23T16:06:00.026Z,1.15
2022-09-23T16:08:28.044Z,1.13
2022-09-23T16:10:55.841Z,1.05
2022-09-23T16:13:23.341Z,1.40
2022-09-23T16:15:50.675Z,1.00
2022-09-23T16:18:18.302Z,0.82
2022-09-23T16:20:47.246Z,1.10
2022-09-23T16:23:43.702Z,1.00
2022-09-23T16:26:18.396Z,0.80
2022-09-23T16:28:46.431Z,1.00
2022-09-23T16:31:17.262Z,0.93
2022-09-23T16:33:45.338Z,1.08
2022-09-23T16:36:15.051Z,1.08
2022-09-23T16:38:42.429Z,1.33
2022-09-23T16:41:11.363Z,1.20
2022-09-23T16:43:42.020Z,1.33
2022-09-23T16:46:12.305Z,1.00
2022-09-23T16:48:47.044Z,1.20
2022-09-23T16:51:26.311Z,1.10
2022-09-23T16:53:54.326Z,1.10
2022-09-23T16:56:27.945Z,1.00
2022-09-23T16:58:56.313Z,0.98
2022-09-23T17:01:43.835Z,1.30
2022-09-23T17:04:11.889Z,0.90
2022-09-23T17:06:46.408Z,0.90
2022-09-23T17:09:13.946Z,1.00
2022-09-23T17:11:44.474Z,1.10
2022-09-23T17:14:11.793Z,1.00
2022-09-23T17:16:39.251Z,1.20
2022-09-23T17:19:10.403Z,1.10
2022-09-23T17:21:37.882Z,1.10
2022-09-23T17:24:05.617Z,1.10
2022-09-23T17:26:32.956Z,0.90
2022-09-23T17:29:01.559Z,1.10
2022-09-23T17:31:29.099Z,1.20
2022-09-23T17:33:56.483Z,1.20
2022-09-23T17:36:23.845Z,0.85
2022-09-23T17:38:53.799Z,1.25
2022-09-23T17:41:21.652Z,1.02
2022-09-23T17:43:54.071Z,1.10
2022-09-23T17:46:21.453Z,1.88
2022-09-23T17:48:49.002Z,1.50
2022-09-23T17:51:19.942Z,1.65
2022-09-23T17:53:47.999Z,1.70
2022-09-23T17:56:19.151Z,1.52
2022-09-23T17:58:46.890Z,1.80
2022-09-23T18:01:15.539Z,1.42
2022-09-23T18:03:43.556Z,1.10
2022-09-23T18:06:11.022Z,1.58
2022-09-23T18:08:38.762Z,1.20
2022-09-23T18:11:32.417Z,1.15
2022-09-23T18:14:04.166Z,1.02
2022-09-23T18:16:34.761Z,1.30
2022-09-23T18:19:03.239Z,1.23
2022-09-23T18:21:31.770Z,1.20
2022-09-23T18:24:15.702Z,1.63
2022-09-23T18:26:47.318Z,1.50
2022-09-23T18:29:16.069Z,1.40
2022-09-23T18:31:45.121Z,1.67
2022-09-23T18:34:13.990Z,1.58
2022-09-23T18:36:41.401Z,2.67
2022-09-23T18:39:08.910Z,2.83
2022-09-23T18:41:36.596Z,1.80
2022-09-23T18:44:04.529Z,1.20
2022-09-23T18:46:31.974Z,1.30
2022-09-23T18:49:18.792Z,1.20
2022-09-23T18:51:51.155Z,1.27
2022-09-23T18:54:19.697Z,1.30
2022-09-23T18:56:47.488Z,1.85
2022-09-23T18:59:20.684Z,1.50
2022-09-23T19:01:50.222Z,1.40
2022-09-23T19:04:18.896Z,1.40
2022-09-23T19:06:46.356Z,1.00
2022-09-23T19:09:14.902Z,1.23
2022-09-23T19:11:42.231Z,1.30
2022-09-23T19:14:11.345Z,1.80
2022-09-23T19:16:39.634Z,3.03
2022-09-23T19:19:07.016Z,1.37
2022-09-23T19:21:34.838Z,1.58
2022-09-23T19:24:04.441Z,1.70
2022-09-23T19:26:39.326Z,1.80
2022-09-23T19:29:08.410Z,2.40
2022-09-23T19:31:40.125Z,2.22
2022-09-23T19:34:11.724Z,2.20
2022-09-23T19:36:39.871Z,1.95
2022-09-23T19:39:08.738Z,1.35
2022-09-23T19:41:36.065Z,1.53
2022-09-23T19:44:03.858Z,1.23
2022-09-23T19:46:32.417Z,1.73
2022-09-23T19:49:00.645Z,1.23
2022-09-23T19:51:28.397Z,1.50
2022-09-23T19:53:55.772Z,1.63
2022-09-23T19:56:23.386Z,1.20
2022-09-23T19:58:54.341Z,1.40
2022-09-23T20:01:25.083Z,1.50
2022-09-23T20:03:53.400Z,1.70
2022-09-23T20:06:21.268Z,1.80
2022-09-23T20:08:49.340Z,1.50
2022-09-23T20:11:23.667Z,1.63
2022-09-23T20:13:58.524Z,1.65
2022-09-23T20:16:29.198Z,1.50
2022-09-23T20:18:56.673Z,1.90
2022-09-23T20:21:24.073Z,2.20
2022-09-23T20:23:51.392Z,2.20
2022-09-23T20:26:37.537Z,1.80
2022-09-23T20:29:05.010Z,2.30
2022-09-23T20:31:32.614Z,2.00
2022-09-23T20:34:00.120Z,1.77
2022-09-23T20:36:28.036Z,1.77
2022-09-23T20:38:59.791Z,1.37
2022-09-23T20:41:31.373Z,1.40
2022-09-23T20:43:59.519Z,2.07
2022-09-23T20:46:28.924Z,1.57
2022-09-23T20:48:56.902Z,1.50
2022-09-23T20:51:25.069Z,1.80
2022-09-23T20:53:53.267Z,1.83
2022-09-23T20:56:25.236Z,1.80
2022-09-23T20:58:54.158Z,1.70
2022-09-23T21:01:22.157Z,1.53
2022-09-23T21:03:52.358Z,1.70
2022-09-23T21:06:19.790Z,1.53
2022-09-23T21:08:47.068Z,1.63
2022-09-23T21:11:15.697Z,1.40
2022-09-23T21:13:47.229Z,1.60
2022-09-23T21:16:17.956Z,1.90
2022-09-23T21:18:45.958Z,1.50
2022-09-23T21:21:14.409Z,1.80
2022-09-23T21:23:42.974Z,1.70
2022-09-23T21:26:12.091Z,2.00
2022-09-23T21:28:40.716Z,2.03
2022-09-23T21:31:28.456Z,1.67
2022-09-23T21:33:56.585Z,1.80
2022-09-23T21:36:24.741Z,1.60
2022-09-23T21:38:52.761Z,1.67
2022-09-23T21:41:20.683Z,1.67
2022-09-23T21:43:49.658Z,1.40
2022-09-23T21:46:20.995Z,1.50
2022-09-23T21:48:53.752Z,1.53
2022-09-23T21:51:25.626Z,1.57
2022-09-23T21:53:54.568Z,1.90
2022-09-23T21:56:23.443Z,1.50
2022-09-23T21:58:52.236Z,2.10
2022-09-23T22:01:20.718Z,1.77
2022-09-23T22:03:53.151Z,1.80
2022-09-23T22:06:27.805Z,1.47
2022-09-23T22:08:59.202Z,1.70
2022-09-23T22:11:46.595Z,1.63
2022-09-23T22:14:14.654Z,1.73
2022-09-23T22:16:42.205Z,1.67
2022-09-23T22:19:10.605Z,1.40
2022-09-23T22:21:38.963Z,1.43
2022-09-23T22:24:07.520Z,1.57
2022-09-23T22:26:36.474Z,1.50
2022-09-23T22:29:23.029Z,1.23
2022-09-23T22:32:09.037Z,1.40
2022-09-23T22:34:49.442Z,1.43
2022-09-23T22:37:18.817Z,1.40
2022-09-23T22:39:46.175Z,1.50
2022-09-23T22:42:13.556Z,1.37
2022-09-23T22:44:40.940Z,1.40
2022-09-23T22:47:09.284Z,1.40
2022-09-23T22:49:36.721Z,1.43
2022-09-23T22:52:07.116Z,1.30
2022-09-23T22:54:35.055Z,1.20
2022-09-23T22:57:05.228Z,1.30
2022-09-23T22:59:32.531Z,1.37
2022-09-23T23:02:02.420Z,1.60
2022-09-23T23:04:30.470Z,1.50
2022-09-23T23:06:58.919Z,1.73
2022-09-23T23:09:26.561Z,1.70
2022-09-23T23:11:53.988Z,1.30
2022-09-23T23:14:21.428Z,1.30
2022-09-23T23:16:48.890Z,1.43
2022-09-23T23:19:17.621Z,1.70
2022-09-23T23:21:45.643Z,1.33
2022-09-23T23:24:17.099Z,1.73
2022-09-23T23:26:44.916Z,1.60
2022-09-23T23:29:13.191Z,1.40
2022-09-23T23:31:40.831Z,1.90
2022-09-23T23:34:12.140Z,1.60
2022-09-23T23:36:41.593Z,1.63
2022-09-23T23:39:09.251Z,1.50
2022-09-23T23:41:37.580Z,1.50
2022-09-23T23:44:05.503Z,1.70
2022-09-23T23:46:33.222Z,1.60
2022-09-23T23:49:00.676Z,1.90
2022-09-23T23:51:28.410Z,1.87
2022-09-23T23:53:55.887Z,1.80
2022-09-23T23:56:24.322Z,1.80
2022-09-23T23:58:58.258Z,1.60
